Time;durP1;ratioP1;P1;durP2;ratioP2;P2;SDS_P1;SDS_P2;PMS_P1;PMS_P2;Temp;Humidity;BMP_temperature;BMP_pressure;BME280_temperature;BME280_humidity;BME280_pressure;Samples;Min_cycle;Max_cycle;Signal;HPM_P1;HPM_P2
2023/06/27 00:01:42;;;;;;;;;;;24.40;99.90;;;;;;5095140;28;20000;-74
2023/06/27 00:04:09;;;;;;;;;;;24.40;99.90;;;;;;5076522;28;20390;-73
2023/06/27 00:06:40;;;;;;;;;;;24.30;99.90;;;;;;5095009;28;20046;-74
2023/06/27 00:09:12;;;;;;;;;;;24.40;99.90;;;;;;5094760;28;19908;-74
2023/06/27 00:11:38;;;;;;;;;;;24.30;99.90;;;;;;5094602;28;19920;-73
2023/06/27 00:14:08;;;;;;;;;;;24.20;99.90;;;;;;5094728;28;19915;-74
2023/06/27 00:16:35;;;;;;;;;;;24.20;99.90;;;;;;5094548;28;19912;-74
2023/06/27 00:19:04;;;;;;;;;;;24.20;99.90;;;;;;5094823;28;20033;-74
2023/06/27 00:21:34;;;;;;;;;;;24.20;99.90;;;;;;5094433;28;19987;-74
2023/06/27 00:24:00;;;;;;;;;;;24.20;99.90;;;;;;5094416;28;19912;-74
2023/06/27 00:26:27;;;;;;;;;;;24.20;99.90;;;;;;5094635;28;20011;-74
2023/06/27 00:28:53;;;;;;;;;;;24.20;99.90;;;;;;5094116;28;20018;-74
2023/06/27 00:31:19;;;;;;;;;;;24.20;99.90;;;;;;5094351;28;20000;-74
2023/06/27 00:33:45;;;;;;;;;;;24.10;99.90;;;;;;5094504;28;19918;-73
2023/06/27 00:36:10;;;;;;;;;;;24.00;99.90;;;;;;5094752;28;19935;-74
2023/06/27 00:38:36;;;;;;;;;;;24.10;99.90;;;;;;5094114;28;20221;-74
2023/06/27 00:41:02;;;;;;;;;;;24.00;99.90;;;;;;5094323;28;19941;-74
2023/06/27 00:43:28;;;;;;;;;;;24.00;99.90;;;;;;5093814;28;19931;-74
2023/06/27 00:45:55;;;;;;;;;;;23.90;99.90;;;;;;5094259;28;20011;-74
2023/06/27 00:48:21;;;;;;;;;;;23.90;99.90;;;;;;5093972;28;19915;-74
2023/06/27 00:50:48;;;;;;;;;;;23.80;99.90;;;;;;5094471;28;19908;-74
2023/06/27 00:53:14;;;;;;;;;;;23.80;99.90;;;;;;5093882;28;19962;-74
2023/06/27 00:55:41;;;;;;;;;;;23.70;99.90;;;;;;5075530;28;19920;-74
2023/06/27 00:58:07;;;;;;;;;;;23.60;99.90;;;;;;5093630;28;19908;-74
2023/06/27 01:00:33;;;;;;;;;;;23.50;99.90;;;;;;5075420;28;20379;-73
2023/06/27 01:02:59;;;;;;;;;;;23.60;99.90;;;;;;5076173;28;19908;-73
2023/06/27 01:05:25;;;;;;;;;;;23.60;99.90;;;;;;5075405;28;20328;-74
2023/06/27 01:07:54;;;;;;;;;;;23.60;99.90;;;;;;5093656;28;19908;-74
2023/06/27 01:10:25;;;;;;;;;;;23.70;99.90;;;;;;5093530;28;19978;-73
2023/06/27 01:12:54;;;;;;;;;;;23.60;99.90;;;;;;5075341;28;19924;-74
2023/06/27 01:15:19;;;;;;;;;;;23.60;99.90;;;;;;5075153;28;19942;-73
2023/06/27 01:17:46;;;;;;;;;;;23.60;99.90;;;;;;5093496;28;19912;-73
2023/06/27 01:20:12;;;;;;;;;;;23.60;99.90;;;;;;5093625;28;20024;-73
2023/06/27 01:22:43;;;;;;;;;;;23.50;99.90;;;;;;5075128;28;20260;-73
2023/06/27 01:25:11;;;;;;;;;;;23.50;99.90;;;;;;5075221;28;19915;-74
2023/06/27 01:27:37;;;;;;;;;;;23.40;99.90;;;;;;5093851;28;19943;-73
2023/06/27 01:30:03;;;;;;;;;;;23.40;99.90;;;;;;5074985;28;19970;-74
2023/06/27 01:32:45;;;;;;;;;;;23.40;99.90;;;;;;5093750;28;19954;-74
2023/06/27 01:35:26;;;;;;;;;;;23.40;99.90;;;;;;5074942;28;19916;-73
2023/06/27 01:37:55;;;;;;;;;;;23.40;99.90;;;;;;5093692;28;19908;-73
2023/06/27 01:40:21;;;;;;;;;;;23.30;99.90;;;;;;5075018;28;19912;-73
2023/06/27 01:42:49;;;;;;;;;;;23.30;99.90;;;;;;5074997;28;19915;-73
2023/06/27 01:45:17;;;;;;;;;;;23.30;99.90;;;;;;5074820;28;19908;-76
2023/06/27 01:47:43;;;;;;;;;;;23.40;99.90;;;;;;5093172;28;19908;-74
2023/06/27 01:50:09;;;;;;;;;;;23.40;99.90;;;;;;5093046;28;19942;-73
2023/06/27 01:52:35;;;;;;;;;;;23.40;99.90;;;;;;5093025;28;19908;-74
2023/06/27 01:55:02;;;;;;;;;;;23.30;99.90;;;;;;5096218;28;19981;-74
2023/06/27 01:57:28;;;;;;;;;;;23.30;99.90;;;;;;5097171;28;19909;-73
2023/06/27 01:59:54;;;;;;;;;;;23.20;99.90;;;;;;5078818;28;20394;-73
2023/06/27 02:02:20;;;;;;;;;;;23.20;99.90;;;;;;5097614;28;19951;-74
2023/06/27 02:04:46;;;;;;;;;;;23.20;99.90;;;;;;5097282;28;19916;-73
2023/06/27 02:07:11;;;;;;;;;;;23.20;99.90;;;;;;5097552;28;19943;-75
2023/06/27 02:09:37;;;;;;;;;;;23.10;99.90;;;;;;5097020;28;19997;-74
2023/06/27 02:12:04;;;;;;;;;;;23.10;99.90;;;;;;5097326;28;20409;-74
2023/06/27 02:14:30;;;;;;;;;;;23.10;99.90;;;;;;5096732;28;19912;-74
2023/06/27 02:16:56;;;;;;;;;;;22.90;99.90;;;;;;5096904;28;19915;-74
2023/06/27 02:19:22;;;;;;;;;;;23.00;99.90;;;;;;5097451;28;20049;-74
2023/06/27 02:21:48;;;;;;;;;;;23.00;99.90;;;;;;5096378;28;19912;-74
2023/06/27 02:24:14;;;;;;;;;;;23.10;99.90;;;;;;5097059;28;19909;-73
2023/06/27 02:26:40;;;;;;;;;;;23.10;99.90;;;;;;5096956;28;19915;-74
2023/06/27 02:29:06;;;;;;;;;;;23.10;99.90;;;;;;5096613;28;20375;-74
2023/06/27 02:31:32;;;;;;;;;;;23.00;99.90;;;;;;5097217;28;19914;-74
2023/06/27 02:33:58;;;;;;;;;;;23.00;99.90;;;;;;5096564;28;19909;-74
2023/06/27 02:36:27;;;;;;;;;;;22.90;99.90;;;;;;5096507;28;20276;-74
2023/06/27 02:38:54;;;;;;;;;;;22.90;99.90;;;;;;5096995;28;19948;-74
2023/06/27 02:41:24;;;;;;;;;;;22.80;99.90;;;;;;5096429;28;19908;-74
2023/06/27 02:43:50;;;;;;;;;;;22.80;99.90;;;;;;5096261;28;20007;-74
2023/06/27 02:46:15;;;;;;;;;;;22.70;99.90;;;;;;5096792;28;20005;-73
2023/06/27 02:48:41;;;;;;;;;;;22.70;99.90;;;;;;5096230;28;19998;-73
2023/06/27 02:51:07;;;;;;;;;;;22.70;99.90;;;;;;5096712;28;19924;-74
2023/06/27 02:53:33;;;;;;;;;;;22.70;99.90;;;;;;5096260;28;19912;-75
2023/06/27 02:56:02;;;;;;;;;;;22.60;99.90;;;;;;5096148;28;20326;-74
2023/06/27 02:58:31;;;;;;;;;;;22.60;99.90;;;;;;5095913;28;19934;-74
2023/06/27 03:01:03;;;;;;;;;;;22.60;99.90;;;;;;5096103;28;19952;-74
2023/06/27 03:03:29;;;;;;;;;;;22.50;99.90;;;;;;5096235;28;19908;-74
2023/06/27 03:05:55;;;;;;;;;;;22.60;99.90;;;;;;5096250;28;19955;-74
2023/06/27 03:08:21;;;;;;;;;;;22.50;99.90;;;;;;5096429;28;19918;-74
2023/06/27 03:10:47;;;;;;;;;;;22.60;99.90;;;;;;5096147;28;19987;-74
2023/06/27 03:13:13;;;;;;;;;;;22.60;99.90;;;;;;5095601;28;19924;-74
2023/06/27 03:15:39;;;;;;;;;;;22.50;99.90;;;;;;5095779;28;19916;-74
2023/06/27 03:18:04;;;;;;;;;;;22.50;99.90;;;;;;5096238;28;20028;-74
2023/06/27 03:20:30;;;;;;;;;;;22.40;99.90;;;;;;5095764;28;19961;-73
2023/06/27 03:22:56;;;;;;;;;;;22.30;99.90;;;;;;5096168;28;19908;-75
2023/06/27 03:25:22;;;;;;;;;;;22.30;99.90;;;;;;5095701;28;19915;-74
2023/06/27 03:27:48;;;;;;;;;;;22.20;99.90;;;;;;5095592;28;19908;-74
2023/06/27 03:30:13;;;;;;;;;;;22.20;99.90;;;;;;5095500;28;20340;-75
2023/06/27 03:32:39;;;;;;;;;;;22.20;99.90;;;;;;5095553;28;19916;-74
2023/06/27 03:35:05;;;;;;;;;;;22.10;99.90;;;;;;5095286;28;19916;-74
2023/06/27 03:37:33;;;;;;;;;;;22.10;99.90;;;;;;5095890;28;19915;-74
2023/06/27 03:40:00;;;;;;;;;;;22.20;99.90;;;;;;5095232;28;19908;-74
2023/06/27 03:42:25;;;;;;;;;;;22.30;99.90;;;;;;5095833;28;19999;-75
2023/06/27 03:44:51;;;;;;;;;;;22.30;99.90;;;;;;5095067;28;19972;-74
2023/06/27 03:47:17;;;;;;;;;;;22.30;99.90;;;;;;5095642;28;19908;-74
2023/06/27 03:49:44;;;;;;;;;;;22.30;99.90;;;;;;5076983;28;19912;-74
2023/06/27 03:52:10;;;;;;;;;;;22.30;99.90;;;;;;5076859;28;19915;-74
2023/06/27 03:54:36;;;;;;;;;;;22.30;99.90;;;;;;5095007;28;19939;-74
2023/06/27 03:57:02;;;;;;;;;;;22.30;99.90;;;;;;5076852;28;20369;-73
2023/06/27 03:59:27;;;;;;;;;;;22.40;99.90;;;;;;5094984;28;19981;-74
2023/06/27 04:01:53;;;;;;;;;;;22.30;99.90;;;;;;5095458;28;19952;-73
2023/06/27 04:04:19;;;;;;;;;;;22.30;99.90;;;;;;5094812;28;20313;-74
2023/06/27 04:06:45;;;;;;;;;;;22.30;99.90;;;;;;5094823;28;19991;-74
2023/06/27 04:09:11;;;;;;;;;;;22.20;99.90;;;;;;5095320;28;19908;-75
2023/06/27 04:11:36;;;;;;;;;;;22.10;99.90;;;;;;5094456;28;20363;-74
2023/06/27 04:14:02;;;;;;;;;;;22.20;99.90;;;;;;5094887;28;20356;-75
2023/06/27 04:16:28;;;;;;;;;;;22.30;99.90;;;;;;5094718;28;19912;-74
2023/06/27 04:18:54;;;;;;;;;;;22.30;99.90;;;;;;5094594;28;19954;-74
2023/06/27 04:21:24;;;;;;;;;;;22.30;99.90;;;;;;5094992;28;19908;-75
2023/06/27 04:23:50;;;;;;;;;;;22.40;99.90;;;;;;5094460;28;19908;-74
2023/06/27 04:26:17;;;;;;;;;;;22.40;99.90;;;;;;5094468;28;19908;-74
2023/06/27 04:28:43;;;;;;;;;;;22.40;99.90;;;;;;5094431;28;19908;-73
2023/06/27 04:31:09;;;;;;;;;;;22.40;99.90;;;;;;5094452;28;20198;-74
2023/06/27 04:33:39;;;;;;;;;;;22.50;99.90;;;;;;5075952;28;19909;-74
2023/06/27 04:36:05;;;;;;;;;;;22.60;99.90;;;;;;5094669;28;20374;-75
2023/06/27 04:38:37;;;;;;;;;;;22.60;99.90;;;;;;5076001;28;19960;-73
2023/06/27 04:41:07;;;;;;;;;;;22.60;99.90;;;;;;5094130;28;19915;-73
2023/06/27 04:43:33;;;;;;;;;;;22.70;99.90;;;;;;5075708;28;19908;-74
2023/06/27 04:45:59;;;;;;;;;;;22.80;99.90;;;;;;5075820;28;19916;-74
2023/06/27 04:48:25;;;;;;;;;;;22.80;99.90;;;;;;5094125;28;19908;-74
2023/06/27 04:50:51;;;;;;;;;;;22.80;99.90;;;;;;5093992;28;19908;-74
2023/06/27 04:53:19;;;;;;;;;;;22.80;99.90;;;;;;5093716;28;19908;-74
2023/06/27 04:55:49;;;;;;;;;;;22.80;99.90;;;;;;5094117;28;19969;-74
2023/06/27 04:58:15;;;;;;;;;;;22.80;99.90;;;;;;5093631;28;19954;-73
2023/06/27 05:00:42;;;;;;;;;;;22.80;99.90;;;;;;5093407;28;19908;-74
2023/06/27 05:03:08;;;;;;;;;;;23.20;99.90;;;;;;5093747;28;19997;-74
2023/06/27 05:05:34;;;;;;;;;;;24.40;99.90;;;;;;5093468;28;19912;-74
2023/06/27 05:08:00;;;;;;;;;;;25.80;99.90;;;;;;5075417;28;19908;-74
2023/06/27 05:10:26;;;;;;;;;;;27.00;99.90;;;;;;5093924;28;20271;-76
2023/06/27 05:12:52;;;;;;;;;;;27.50;99.90;;;;;;5071568;28;20317;-75
2023/06/27 05:15:17;;;;;;;;;;;27.60;99.90;;;;;;5072713;28;19960;-75
2023/06/27 05:17:47;;;;;;;;;;;28.40;99.90;;;;;;5073004;28;19924;-74
2023/06/27 05:20:13;;;;;;;;;;;28.90;99.90;;;;;;5072870;28;19908;-75
2023/06/27 05:22:39;;;;;;;;;;;28.90;99.90;;;;;;5071652;28;19909;-74
2023/06/27 05:25:05;;;;;;;;;;;29.80;99.90;;;;;;5073435;28;19909;-75
2023/06/27 05:27:31;;;;;;;;;;;30.30;99.90;;;;;;5072698;28;19909;-76
2023/06/27 05:29:56;;;;;;;;;;;29.90;99.90;;;;;;5071877;28;19909;-74
2023/06/27 05:32:22;;;;;;;;;;;29.70;99.90;;;;;;5071467;28;20372;-75
2023/06/27 05:34:48;;;;;;;;;;;30.30;99.90;;;;;;5072760;28;20011;-74
2023/06/27 05:37:14;;;;;;;;;;;30.10;99.90;;;;;;5073019;28;19913;-74
2023/06/27 05:39:40;;;;;;;;;;;29.80;99.90;;;;;;5072646;28;19909;-74
2023/06/27 05:42:05;;;;;;;;;;;30.10;99.90;;;;;;5072754;28;19952;-75
2023/06/27 05:44:31;;;;;;;;;;;30.10;99.90;;;;;;5072297;28;20343;-76
2023/06/27 05:46:57;;;;;;;;;;;30.10;99.90;;;;;;5072347;28;20277;-75
2023/06/27 05:49:23;;;;;;;;;;;29.90;99.90;;;;;;5072803;28;19959;-74
2023/06/27 05:51:48;;;;;;;;;;;30.60;99.90;;;;;;5072532;28;19955;-74
2023/06/27 05:54:14;;;;;;;;;;;31.80;99.90;;;;;;5071055;28;19920;-74
2023/06/27 05:56:40;;;;;;;;;;;30.80;99.90;;;;;;5072573;28;19909;-75
2023/06/27 05:59:06;;;;;;;;;;;30.50;99.90;;;;;;5072157;28;19923;-74
2023/06/27 06:01:34;;;;;;;;;;;30.90;99.90;;;;;;5072263;28;19924;-75
2023/06/27 06:04:00;;;;;;;;;;;31.10;99.90;;;;;;5072150;28;20427;-76
2023/06/27 06:06:25;;;;;;;;;;;31.20;99.90;;;;;;5072816;28;19943;-75
2023/06/27 06:08:51;;;;;;;;;;;31.20;99.90;;;;;;5072178;28;19915;-75
2023/06/27 06:11:17;;;;;;;;;;;32.00;99.90;;;;;;5072581;28;19908;-75
2023/06/27 06:13:43;;;;;;;;;;;33.00;99.90;;;;;;5091868;28;19923;-76
2023/06/27 06:16:08;;;;;;;;;;;33.20;99.90;;;;;;5092190;28;19927;-75
2023/06/27 06:18:34;;;;;;;;;;;35.40;99.90;;;;;;5092208;28;19953;-74
2023/06/27 06:21:00;;;;;;;;;;;32.90;99.90;;;;;;5092597;28;19913;-75
2023/06/27 06:23:26;;;;;;;;;;;34.70;99.90;;;;;;5092249;28;19915;-75
2023/06/27 06:25:52;;;;;;;;;;;35.60;98.30;;;;;;5092758;28;19943;-75
2023/06/27 06:28:17;;;;;;;;;;;34.80;98.30;;;;;;5092281;28;19908;-75
2023/06/27 06:30:43;;;;;;;;;;;34.80;98.90;;;;;;5092194;28;19995;-75
2023/06/27 06:33:09;;;;;;;;;;;34.50;98.00;;;;;;5092747;28;19908;-73
2023/06/27 06:35:35;;;;;;;;;;;33.50;99.10;;;;;;5074046;28;19923;-74
2023/06/27 06:38:01;;;;;;;;;;;35.80;97.40;;;;;;5092341;28;19915;-75
2023/06/27 06:40:29;;;;;;;;;;;37.00;96.90;;;;;;5076150;28;20327;-76
2023/06/27 06:42:54;;;;;;;;;;;39.40;96.10;;;;;;5096136;28;19978;-75
2023/06/27 06:45:20;;;;;;;;;;;39.60;95.10;;;;;;5095747;28;19915;-75
2023/06/27 06:47:46;;;;;;;;;;;40.10;94.50;;;;;;5096003;28;19934;-74
2023/06/27 06:50:12;;;;;;;;;;;40.00;93.40;;;;;;5095762;28;19908;-75
2023/06/27 06:52:38;;;;;;;;;;;40.00;92.80;;;;;;5095601;28;19973;-75
2023/06/27 06:55:04;;;;;;;;;;;40.10;92.80;;;;;;5095825;28;19920;-75
2023/06/27 06:57:30;;;;;;;;;;;40.50;92.10;;;;;;5095674;28;19915;-75
2023/06/27 06:59:56;;;;;;;;;;;40.60;91.70;;;;;;5095333;28;20271;-74
2023/06/27 07:02:22;;;;;;;;;;;40.60;91.10;;;;;;5095814;28;19996;-74
2023/06/27 07:04:48;;;;;;;;;;;40.60;91.30;;;;;;5095740;28;19909;-75
2023/06/27 07:07:13;;;;;;;;;;;40.40;90.70;;;;;;5095575;28;20384;-76
2023/06/27 07:09:39;;;;;;;;;;;40.90;90.40;;;;;;5095443;28;19960;-75
2023/06/27 07:12:05;;;;;;;;;;;41.80;88.40;;;;;;5094970;28;20011;-74
2023/06/27 07:14:31;;;;;;;;;;;40.90;88.20;;;;;;5094738;28;19923;-74
2023/06/27 07:16:57;;;;;;;;;;;40.10;88.80;;;;;;5077041;28;19908;-74
2023/06/27 07:19:23;;;;;;;;;;;39.90;90.50;;;;;;5095518;28;19908;-74
2023/06/27 07:21:48;;;;;;;;;;;39.70;89.30;;;;;;5095353;28;19912;-74
2023/06/27 07:24:14;;;;;;;;;;;39.20;90.30;;;;;;5095089;28;19912;-74
2023/06/27 07:26:41;;;;;;;;;;;39.30;90.50;;;;;;5095253;28;19954;-74
2023/06/27 07:29:07;;;;;;;;;;;37.70;90.30;;;;;;5095215;28;19908;-74
2023/06/27 07:31:33;;;;;;;;;;;36.70;90.80;;;;;;5094979;28;19912;-74
2023/06/27 07:33:58;;;;;;;;;;;35.60;92.30;;;;;;5094760;28;20272;-74
2023/06/27 07:36:24;;;;;;;;;;;35.60;92.50;;;;;;5095045;28;20018;-74
2023/06/27 07:38:51;;;;;;;;;;;35.50;92.50;;;;;;5094828;28;20314;-76
2023/06/27 07:41:16;;;;;;;;;;;35.60;92.80;;;;;;5094555;28;19908;-74
2023/06/27 07:43:42;;;;;;;;;;;35.50;92.50;;;;;;5094659;28;20053;-74
2023/06/27 07:46:08;;;;;;;;;;;34.50;93.40;;;;;;5094986;28;19908;-74
2023/06/27 07:48:34;;;;;;;;;;;34.80;93.60;;;;;;5094660;28;20252;-75
2023/06/27 07:51:00;;;;;;;;;;;35.00;93.20;;;;;;5076011;28;20007;-75
2023/06/27 07:53:25;;;;;;;;;;;34.80;93.20;;;;;;5075587;28;19908;-74
2023/06/27 07:55:51;;;;;;;;;;;34.80;93.20;;;;;;5075986;28;19916;-75
2023/06/27 07:58:18;;;;;;;;;;;34.40;92.90;;;;;;5076028;28;19908;-74
2023/06/27 08:00:43;;;;;;;;;;;34.50;93.40;;;;;;5094222;28;19913;-75
2023/06/27 08:03:09;;;;;;;;;;;34.30;92.90;;;;;;5094286;28;19986;-74
2023/06/27 08:05:38;;;;;;;;;;;33.70;93.20;;;;;;5094052;28;19938;-73
2023/06/27 08:08:04;;;;;;;;;;;34.10;93.70;;;;;;5094252;28;19920;-73
2023/06/27 08:10:30;;;;;;;;;;;33.50;93.40;;;;;;5093894;28;19908;-73
2023/06/27 08:12:56;;;;;;;;;;;34.20;93.80;;;;;;5094033;28;20258;-74
2023/06/27 08:15:24;;;;;;;;;;;34.30;93.70;;;;;;5093814;28;19962;-73
2023/06/27 08:17:50;;;;;;;;;;;34.60;93.90;;;;;;5094232;28;19912;-75
2023/06/27 08:20:16;;;;;;;;;;;34.60;93.70;;;;;;5094232;28;20281;-75
2023/06/27 08:22:41;;;;;;;;;;;34.60;93.20;;;;;;5094284;28;19914;-74
2023/06/27 08:25:07;;;;;;;;;;;33.80;94.00;;;;;;5093597;28;20013;-75
2023/06/27 08:27:34;;;;;;;;;;;33.10;94.40;;;;;;5094185;28;19908;-74
2023/06/27 08:30:00;;;;;;;;;;;33.50;94.50;;;;;;5093669;28;20268;-74
2023/06/27 08:32:26;;;;;;;;;;;33.40;93.90;;;;;;5094113;28;19908;-75
2023/06/27 08:34:51;;;;;;;;;;;33.70;93.90;;;;;;5093306;28;19931;-75
2023/06/27 08:37:17;;;;;;;;;;;33.60;94.10;;;;;;5093828;28;19908;-74
2023/06/27 08:39:51;;;;;;;;;;;33.30;94.20;;;;;;5093330;28;19912;-73
2023/06/27 08:42:17;;;;;;;;;;;33.70;94.00;;;;;;5094380;28;20260;-74
2023/06/27 08:44:43;;;;;;;;;;;33.70;94.20;;;;;;5093552;28;19909;-74
2023/06/27 08:47:11;;;;;;;;;;;33.80;94.00;;;;;;5094102;28;19908;-75
2023/06/27 08:49:37;;;;;;;;;;;34.10;93.50;;;;;;5093658;28;19915;-74
2023/06/27 08:52:04;;;;;;;;;;;33.80;93.30;;;;;;5093526;28;19912;-73
2023/06/27 08:54:35;;;;;;;;;;;33.40;94.00;;;;;;5093171;28;19916;-74
2023/06/27 08:57:02;;;;;;;;;;;33.20;94.30;;;;;;5075629;28;19931;-74
2023/06/27 08:59:31;;;;;;;;;;;33.20;94.10;;;;;;5074805;28;20347;-75
2023/06/27 09:01:58;;;;;;;;;;;33.30;94.20;;;;;;5075157;28;19991;-75
2023/06/27 09:04:24;;;;;;;;;;;33.40;94.20;;;;;;5093106;28;19908;-75
2023/06/27 09:06:50;;;;;;;;;;;33.60;94.50;;;;;;5093706;28;19930;-75
2023/06/27 09:09:16;;;;;;;;;;;33.80;94.20;;;;;;5092563;28;20401;-74
2023/06/27 09:11:44;;;;;;;;;;;33.70;93.90;;;;;;5092786;28;19938;-75
2023/06/27 09:14:10;;;;;;;;;;;33.50;93.70;;;;;;5092702;28;19912;-75
2023/06/27 09:16:36;;;;;;;;;;;33.40;94.10;;;;;;5092960;28;19965;-74
2023/06/27 09:19:02;;;;;;;;;;;33.10;93.90;;;;;;5093235;28;19908;-76
2023/06/27 09:21:31;;;;;;;;;;;32.70;94.20;;;;;;5093084;28;19908;-73
2023/06/27 09:23:57;;;;;;;;;;;32.50;94.60;;;;;;5092900;28;19985;-74
2023/06/27 09:26:27;;;;;;;;;;;32.60;94.70;;;;;;5074643;28;19911;-73
2023/06/27 09:28:52;;;;;;;;;;;32.80;94.80;;;;;;5074066;28;19909;-74
2023/06/27 09:31:19;;;;;;;;;;;32.80;94.40;;;;;;5092639;28;19915;-75
2023/06/27 09:33:47;;;;;;;;;;;32.60;94.90;;;;;;5093240;28;19965;-74
2023/06/27 09:36:29;;;;;;;;;;;32.50;95.20;;;;;;5092596;28;19985;-75
2023/06/27 09:38:56;;;;;;;;;;;32.40;94.90;;;;;;5074552;28;19970;-74
2023/06/27 09:41:22;;;;;;;;;;;32.10;95.50;;;;;;5074460;28;19909;-75
2023/06/27 09:43:51;;;;;;;;;;;32.00;95.60;;;;;;5092830;28;20019;-75
2023/06/27 09:46:20;;;;;;;;;;;32.10;95.00;;;;;;5092294;28;19912;-74
2023/06/27 09:48:46;;;;;;;;;;;31.70;94.90;;;;;;5092888;28;20378;-74
2023/06/27 09:51:12;;;;;;;;;;;32.10;95.20;;;;;;5074105;28;20073;-75
2023/06/27 09:53:37;;;;;;;;;;;32.00;95.10;;;;;;5092279;28;19962;-74
2023/06/27 09:56:03;;;;;;;;;;;31.90;95.60;;;;;;5092240;28;19945;-74
2023/06/27 09:58:30;;;;;;;;;;;32.20;95.30;;;;;;5092705;28;20221;-74
2023/06/27 10:01:05;;;;;;;;;;;31.90;95.10;;;;;;5092178;28;19909;-74
2023/06/27 10:03:32;;;;;;;;;;;32.10;94.80;;;;;;5092214;28;19908;-73
2023/06/27 10:05:57;;;;;;;;;;;31.70;94.90;;;;;;5092053;28;19992;-74
2023/06/27 10:08:23;;;;;;;;;;;31.50;95.80;;;;;;5091975;28;20018;-73
2023/06/27 10:10:49;;;;;;;;;;;31.60;95.60;;;;;;5092032;28;19944;-74
2023/06/27 10:13:15;;;;;;;;;;;31.50;95.50;;;;;;5070372;28;19925;-75
2023/06/27 10:15:41;;;;;;;;;;;31.30;95.30;;;;;;5073772;28;19916;-74
2023/06/27 10:18:07;;;;;;;;;;;31.40;95.90;;;;;;5074461;28;20261;-74
2023/06/27 10:20:33;;;;;;;;;;;31.40;95.30;;;;;;5076306;28;19916;-74
2023/06/27 10:22:59;;;;;;;;;;;31.40;95.50;;;;;;5075955;28;19917;-74
2023/06/27 10:25:25;;;;;;;;;;;31.20;95.70;;;;;;5075852;28;19913;-73
2023/06/27 10:28:03;;;;;;;;;;;31.10;95.60;;;;;;5076026;28;19923;-73
2023/06/27 10:30:29;;;;;;;;;;;30.70;96.00;;;;;;5075614;28;19909;-73
2023/06/27 10:33:09;;;;;;;;;;;30.50;95.70;;;;;;5076053;28;19912;-74
2023/06/27 10:35:38;;;;;;;;;;;30.60;95.90;;;;;;5075824;28;19967;-74
2023/06/27 10:38:08;;;;;;;;;;;30.50;96.20;;;;;;5075682;28;19909;-73
2023/06/27 10:41:06;;;;;;;;;;;30.50;96.10;;;;;;5075578;28;19909;-74
2023/06/27 10:43:38;;;;;;;;;;;30.40;96.20;;;;;;5093458;28;19908;-74
2023/06/27 10:46:04;;;;;;;;;;;30.70;96.00;;;;;;5076281;28;20290;-74
2023/06/27 10:48:32;;;;;;;;;;;31.00;95.60;;;;;;5093766;28;19939;-73
2023/06/27 10:51:07;;;;;;;;;;;31.20;95.50;;;;;;5093415;28;19908;-76
2023/06/27 10:53:33;;;;;;;;;;;31.20;95.40;;;;;;5093708;28;20363;-74
2023/06/27 10:56:13;;;;;;;;;;;30.60;95.40;;;;;;5093353;28;19966;-72
2023/06/27 10:58:45;;;;;;;;;;;30.70;95.50;;;;;;5076405;28;20375;-75
2023/06/27 11:01:12;;;;;;;;;;;30.40;95.30;;;;;;5093435;28;20344;-75
2023/06/27 11:03:43;;;;;;;;;;;30.60;95.30;;;;;;5093786;28;19908;-76
2023/06/27 11:06:09;;;;;;;;;;;30.60;95.20;;;;;;5093507;28;20299;-75
2023/06/27 11:08:35;;;;;;;;;;;30.70;95.30;;;;;;5093498;28;19912;-75
2023/06/27 11:11:08;;;;;;;;;;;30.90;95.20;;;;;;5093257;28;19931;-75
2023/06/27 11:13:35;;;;;;;;;;;30.80;94.50;;;;;;5093042;28;19927;-75
2023/06/27 11:16:02;;;;;;;;;;;31.00;95.00;;;;;;5093168;28;20332;-75
2023/06/27 11:18:28;;;;;;;;;;;31.10;94.80;;;;;;5093367;28;19909;-76
2023/06/27 11:20:55;;;;;;;;;;;31.20;94.70;;;;;;5058130;28;19916;-76
2023/06/27 11:23:21;;;;;;;;;;;31.50;94.70;;;;;;5055176;28;19967;-76
2023/06/27 11:25:48;;;;;;;;;;;31.50;94.70;;;;;;5087000;28;19912;-79
2023/06/27 11:28:16;;;;;;;;;;;31.60;94.70;;;;;;5053875;28;19967;-76
2023/06/27 11:30:43;;;;;;;;;;;31.50;94.30;;;;;;5054377;28;19909;-75
2023/06/27 11:33:09;;;;;;;;;;;31.40;94.30;;;;;;5055834;28;19955;-75
2023/06/27 11:35:35;;;;;;;;;;;31.30;94.60;;;;;;5074942;28;19928;-74
2023/06/27 11:38:05;;;;;;;;;;;31.20;94.60;;;;;;5074885;28;19912;-74
2023/06/27 11:40:31;;;;;;;;;;;31.30;94.40;;;;;;5074736;28;19908;-74
2023/06/27 11:43:02;;;;;;;;;;;31.40;94.60;;;;;;5075126;28;19909;-74
2023/06/27 11:45:29;;;;;;;;;;;31.50;94.50;;;;;;5074551;28;19908;-75
2023/06/27 11:47:54;;;;;;;;;;;31.30;94.30;;;;;;5074542;28;20392;-75
2023/06/27 11:50:21;;;;;;;;;;;31.30;94.50;;;;;;5073097;28;19908;-75
2023/06/27 11:52:47;;;;;;;;;;;31.60;94.50;;;;;;5074773;28;19982;-74
2023/06/27 11:55:13;;;;;;;;;;;31.50;94.50;;;;;;5074314;28;20392;-74
2023/06/27 11:57:46;;;;;;;;;;;31.50;94.60;;;;;;5075045;28;19952;-75
2023/06/27 12:00:12;;;;;;;;;;;31.40;94.90;;;;;;5072949;28;20316;-75
2023/06/27 12:02:38;;;;;;;;;;;31.40;95.10;;;;;;5074255;28;19908;-75
2023/06/27 12:05:05;;;;;;;;;;;31.70;95.20;;;;;;5074695;28;19908;-74
2023/06/27 12:07:32;;;;;;;;;;;31.90;94.80;;;;;;5074424;28;19916;-74
2023/06/27 12:10:04;;;;;;;;;;;32.00;95.00;;;;;;5074173;28;20277;-74
2023/06/27 12:12:40;;;;;;;;;;;32.20;94.70;;;;;;5072660;28;19921;-74
2023/06/27 12:15:12;;;;;;;;;;;32.10;94.70;;;;;;5073898;28;19966;-74
2023/06/27 12:17:38;;;;;;;;;;;32.00;94.10;;;;;;5073984;28;19999;-74
2023/06/27 12:20:07;;;;;;;;;;;32.00;94.50;;;;;;5073886;28;20148;-74
2023/06/27 12:22:33;;;;;;;;;;;31.60;94.60;;;;;;5074024;28;19915;-74
2023/06/27 12:24:59;;;;;;;;;;;31.70;94.50;;;;;;5074029;28;19908;-74
2023/06/27 12:27:25;;;;;;;;;;;31.90;94.50;;;;;;5074531;28;19935;-74
2023/06/27 12:29:50;;;;;;;;;;;31.80;94.20;;;;;;5072131;28;20374;-74
2023/06/27 12:32:16;;;;;;;;;;;31.80;94.50;;;;;;5073990;28;19909;-74
2023/06/27 12:34:42;;;;;;;;;;;31.20;94.90;;;;;;5073848;28;19924;-75
2023/06/27 12:37:08;;;;;;;;;;;31.50;95.70;;;;;;5072550;28;19909;-75
2023/06/27 12:39:35;;;;;;;;;;;31.60;95.70;;;;;;5073465;28;20328;-75
2023/06/27 12:42:00;;;;;;;;;;;31.20;96.20;;;;;;5073768;28;20397;-75
2023/06/27 12:44:26;;;;;;;;;;;31.20;98.00;;;;;;5073661;28;19955;-75
2023/06/27 12:46:52;;;;;;;;;;;31.40;98.30;;;;;;5074120;28;20238;-74
2023/06/27 12:49:18;;;;;;;;;;;31.50;98.70;;;;;;5073683;28;19931;-75
2023/06/27 12:51:44;;;;;;;;;;;31.60;98.00;;;;;;5074065;28;19909;-75
2023/06/27 12:54:09;;;;;;;;;;;31.70;97.50;;;;;;5073443;28;19931;-75
2023/06/27 12:56:35;;;;;;;;;;;31.90;98.10;;;;;;5073477;28;20010;-74
2023/06/27 12:59:01;;;;;;;;;;;32.00;96.50;;;;;;5073899;28;19916;-72
2023/06/27 13:01:34;;;;;;;;;;;31.90;96.60;;;;;;5072946;28;19909;-73
2023/06/27 13:04:00;;;;;;;;;;;31.70;96.40;;;;;;5073489;28;19931;-73
2023/06/27 13:06:25;;;;;;;;;;;31.60;96.30;;;;;;5073098;28;20276;-72
2023/06/27 13:08:51;;;;;;;;;;;31.80;96.20;;;;;;5072915;28;19919;-73
2023/06/27 13:11:17;;;;;;;;;;;31.90;96.80;;;;;;5073078;28;19917;-72
2023/06/27 13:13:43;;;;;;;;;;;31.90;96.70;;;;;;5092488;28;19967;-73
2023/06/27 13:16:12;;;;;;;;;;;32.10;96.30;;;;;;5074383;28;20379;-73
2023/06/27 13:18:39;;;;;;;;;;;32.20;94.80;;;;;;5093030;28;20289;-73
2023/06/27 13:21:06;;;;;;;;;;;32.20;94.90;;;;;;5074873;28;19964;-74
2023/06/27 13:23:32;;;;;;;;;;;32.10;95.40;;;;;;5093019;28;19914;-74
2023/06/27 13:25:58;;;;;;;;;;;32.20;95.20;;;;;;5093156;28;20015;-73
2023/06/27 13:28:25;;;;;;;;;;;32.20;94.80;;;;;;5093258;28;19994;-73
2023/06/27 13:30:51;;;;;;;;;;;32.30;96.00;;;;;;5092605;28;20004;-73
2023/06/27 13:33:17;;;;;;;;;;;32.20;96.20;;;;;;5093155;28;20014;-73
2023/06/27 13:35:43;;;;;;;;;;;32.00;96.50;;;;;;5093010;28;20015;-73
2023/06/27 13:38:09;;;;;;;;;;;32.00;96.70;;;;;;5092853;28;19908;-73
2023/06/27 13:40:34;;;;;;;;;;;32.20;96.60;;;;;;5093226;28;19908;-73
2023/06/27 13:43:01;;;;;;;;;;;32.30;96.40;;;;;;5092975;28;19916;-73
2023/06/27 13:45:27;;;;;;;;;;;32.20;95.80;;;;;;5092855;28;20379;-73
2023/06/27 13:47:54;;;;;;;;;;;32.40;95.40;;;;;;5093233;28;19915;-72
2023/06/27 13:50:20;;;;;;;;;;;32.40;95.20;;;;;;5092177;28;19908;-73
2023/06/27 13:52:46;;;;;;;;;;;32.40;96.50;;;;;;5092850;28;20379;-73
2023/06/27 13:55:12;;;;;;;;;;;32.30;97.30;;;;;;5092882;28;19912;-72
2023/06/27 13:57:38;;;;;;;;;;;32.40;97.80;;;;;;5074431;28;19919;-73
2023/06/27 14:00:05;;;;;;;;;;;32.20;97.90;;;;;;5092769;28;20485;-73
2023/06/27 14:02:31;;;;;;;;;;;32.00;98.00;;;;;;5092427;28;19923;-73
2023/06/27 14:04:57;;;;;;;;;;;32.10;98.20;;;;;;5092930;28;19915;-73
2023/06/27 14:07:23;;;;;;;;;;;32.20;97.80;;;;;;5074347;28;19908;-73
2023/06/27 14:09:48;;;;;;;;;;;32.20;97.20;;;;;;5092445;28;19908;-73
2023/06/27 14:12:16;;;;;;;;;;;32.30;97.20;;;;;;5092393;28;19991;-73
2023/06/27 14:14:44;;;;;;;;;;;32.40;97.30;;;;;;5092005;28;19920;-73